createdAt,value
2022-10-10T00:00:37.761Z,2.20
2022-10-10T00:03:04.744Z,1.93
2022-10-10T00:05:31.409Z,1.27
2022-10-10T00:07:58.053Z,1.80
2022-10-10T00:10:25.057Z,2.78
2022-10-10T00:12:52.042Z,1.98
2022-10-10T00:15:19.071Z,2.00
2022-10-10T00:17:45.802Z,2.58
2022-10-10T00:20:16.137Z,1.31
2022-10-10T00:22:42.777Z,1.45
2022-10-10T00:25:09.698Z,1.62
2022-10-10T00:27:36.640Z,2.35
2022-10-10T00:30:04.632Z,1.98
2022-10-10T00:32:31.376Z,2.12
2022-10-10T00:34:58.023Z,0.94
2022-10-10T00:37:24.718Z,1.15
2022-10-10T00:39:51.356Z,0.79
2022-10-10T00:42:18.120Z,1.69
2022-10-10T00:44:45.712Z,1.84
2022-10-10T00:47:12.616Z,2.83
2022-10-10T00:49:41.030Z,1.21
2022-10-10T00:52:09.785Z,1.81
2022-10-10T00:54:36.842Z,0.80
2022-10-10T00:57:13.054Z,1.73
2022-10-10T00:59:41.002Z,2.96
2022-10-10T01:02:07.608Z,0.24
2022-10-10T01:04:45.629Z,1.02
2022-10-10T01:07:21.511Z,0.96
2022-10-10T01:09:48.384Z,1.92
2022-10-10T01:12:23.426Z,3.16
2022-10-10T01:15:08.409Z,3.21
2022-10-10T01:17:41.339Z,1.04
2022-10-10T01:20:37.900Z,3.15
2022-10-10T01:23:38.640Z,3.15
2022-10-10T01:26:31.533Z,3.15
2022-10-10T01:29:21.946Z,2.06
2022-10-10T01:31:49.248Z,1.79
2022-10-10T01:34:27.535Z,3.13
2022-10-10T01:37:21.244Z,1.17
2022-10-10T01:40:04.667Z,1.39
2022-10-10T01:42:35.677Z,2.01
2022-10-10T01:45:02.336Z,1.36
2022-10-10T01:47:28.985Z,1.27
2022-10-10T01:49:59.131Z,2.10
2022-10-10T01:52:41.935Z,3.06
2022-10-10T01:55:33.298Z,3.06
2022-10-10T01:58:21.103Z,3.05
2022-10-10T02:00:56.422Z,1.51
2022-10-10T02:03:29.290Z,3.08
2022-10-10T02:06:13.152Z,2.68
2022-10-10T02:09:03.502Z,2.72
2022-10-10T02:11:30.126Z,2.34
2022-10-10T02:14:00.488Z,1.75
2022-10-10T02:16:41.562Z,0.47
2022-10-10T02:19:09.286Z,1.13
2022-10-10T02:21:35.948Z,1.83
2022-10-10T02:24:03.925Z,2.33
2022-10-10T02:26:30.537Z,3.29
2022-10-10T02:28:59.834Z,1.39
2022-10-10T02:31:39.855Z,1.80
2022-10-10T02:34:09.898Z,1.32
2022-10-10T02:36:36.538Z,1.37
2022-10-10T02:39:03.419Z,0.86
2022-10-10T02:41:30.076Z,1.07
2022-10-10T02:43:56.777Z,2.35
2022-10-10T02:46:23.618Z,2.98
2022-10-10T02:48:50.283Z,1.83
2022-10-10T02:51:16.970Z,0.51
2022-10-10T02:53:43.618Z,2.25
2022-10-10T02:56:10.559Z,0.99
2022-10-10T02:58:37.183Z,1.81
2022-10-10T03:01:03.907Z,1.51
2022-10-10T03:03:30.627Z,1.36
2022-10-10T03:05:57.293Z,1.30
2022-10-10T03:08:23.973Z,1.49
2022-10-10T03:10:57.564Z,1.82
2022-10-10T03:13:24.392Z,1.77
2022-10-10T03:15:51.125Z,1.92
2022-10-10T03:18:17.787Z,1.95
2022-10-10T03:20:50.887Z,2.33
2022-10-10T03:23:17.536Z,2.10
2022-10-10T03:25:44.224Z,2.93
2022-10-10T03:28:11.336Z,2.25
2022-10-10T03:30:38.424Z,2.90
2022-10-10T03:33:05.637Z,1.75
2022-10-10T03:35:32.354Z,2.74
2022-10-10T03:37:59.241Z,2.88
2022-10-10T03:40:26.417Z,3.05
2022-10-10T03:42:53.494Z,1.78
2022-10-10T03:45:20.307Z,2.56
2022-10-10T03:47:46.960Z,2.89
2022-10-10T03:50:13.580Z,4.17
2022-10-10T03:52:40.236Z,2.67
2022-10-10T03:55:07.229Z,1.35
2022-10-10T03:57:33.904Z,3.46
2022-10-10T04:00:00.539Z,1.93
2022-10-10T04:02:27.184Z,2.15
2022-10-10T04:04:53.871Z,2.63
2022-10-10T04:07:20.684Z,2.73
2022-10-10T04:09:47.302Z,2.94
2022-10-10T04:12:13.980Z,2.24
2022-10-10T04:14:40.628Z,2.16
2022-10-10T04:17:07.243Z,1.74
2022-10-10T04:19:33.894Z,2.07
2022-10-10T04:22:00.539Z,2.32
2022-10-10T04:24:27.208Z,2.46
2022-10-10T04:26:53.945Z,2.79
2022-10-10T04:29:20.616Z,2.07
2022-10-10T04:31:47.317Z,2.25
2022-10-10T04:34:15.159Z,1.05
2022-10-10T04:36:42.079Z,1.32
2022-10-10T04:39:09.285Z,2.19
2022-10-10T04:41:35.907Z,2.14
2022-10-10T04:44:02.564Z,2.06
2022-10-10T04:46:29.239Z,2.21
2022-10-10T04:48:55.911Z,1.25
2022-10-10T04:51:22.680Z,1.78
2022-10-10T04:53:50.540Z,2.40
2022-10-10T04:56:17.440Z,2.74
2022-10-10T04:58:44.034Z,2.27
2022-10-10T05:01:10.680Z,3.59
2022-10-10T05:03:37.393Z,3.34
2022-10-10T05:06:04.106Z,0.79
2022-10-10T05:08:30.731Z,1.83
2022-10-10T05:10:57.492Z,3.63
2022-10-10T05:13:24.208Z,3.65
2022-10-10T05:15:51.961Z,1.84
2022-10-10T05:18:22.106Z,1.41
2022-10-10T05:20:48.866Z,2.22
2022-10-10T05:23:16.017Z,1.34
2022-10-10T05:25:48.055Z,1.25
2022-10-10T05:28:14.741Z,0.75
2022-10-10T05:30:41.458Z,2.29
2022-10-10T05:33:08.220Z,1.03
2022-10-10T05:35:34.876Z,2.18
2022-10-10T05:38:01.626Z,4.30
2022-10-10T05:40:28.353Z,2.44
2022-10-10T05:42:55.046Z,3.06
2022-10-10T05:45:21.737Z,3.00
2022-10-10T05:47:48.422Z,3.61
2022-10-10T05:50:38.697Z,4.63
2022-10-10T05:53:06.913Z,2.81
2022-10-10T05:55:33.808Z,2.04
2022-10-10T05:58:00.434Z,2.94
2022-10-10T06:00:27.141Z,3.10
2022-10-10T06:02:54.422Z,3.02
2022-10-10T06:05:21.376Z,2.56
2022-10-10T06:08:04.676Z,3.43
2022-10-10T06:10:37.332Z,3.55
2022-10-10T06:13:03.996Z,4.02
2022-10-10T06:15:30.786Z,3.53
2022-10-10T06:17:57.597Z,2.75
2022-10-10T06:20:24.262Z,4.87
2022-10-10T06:22:51.633Z,3.29
2022-10-10T06:25:38.438Z,3.81
2022-10-10T06:28:05.265Z,3.69
2022-10-10T06:30:32.275Z,3.96
2022-10-10T06:32:59.123Z,3.96
2022-10-10T06:35:26.146Z,3.92
2022-10-10T06:37:52.780Z,3.64
2022-10-10T06:40:19.412Z,3.31
2022-10-10T06:42:46.030Z,3.82
2022-10-10T06:45:12.649Z,3.79
2022-10-10T06:47:39.996Z,3.89
2022-10-10T06:50:06.806Z,4.30
2022-10-10T06:52:33.651Z,4.74
2022-10-10T06:55:00.296Z,4.49
2022-10-10T06:57:28.018Z,2.98
2022-10-10T06:59:54.629Z,5.31
2022-10-10T07:02:21.301Z,4.41
2022-10-10T07:04:47.947Z,5.79
2022-10-10T07:07:14.558Z,5.94
2022-10-10T07:09:41.226Z,6.95
2022-10-10T07:12:07.962Z,7.01
2022-10-10T07:14:34.534Z,8.50
2022-10-10T07:17:01.215Z,7.43
2022-10-10T07:19:28.119Z,7.31
2022-10-10T07:21:54.738Z,8.54
2022-10-10T07:24:21.378Z,7.94
2022-10-10T07:26:48.050Z,8.24
2022-10-10T07:29:14.747Z,9.65
2022-10-10T07:31:41.404Z,9.87
2022-10-10T07:34:08.097Z,11.01
2022-10-10T07:36:34.913Z,9.74
2022-10-10T07:39:01.545Z,11.73
2022-10-10T07:41:28.314Z,13.29
2022-10-10T07:43:56.099Z,13.46
2022-10-10T07:46:22.780Z,15.63
2022-10-10T07:48:49.452Z,17.02
2022-10-10T07:51:16.395Z,18.53
2022-10-10T07:53:44.415Z,19.84
2022-10-10T07:56:11.599Z,20.59
2022-10-10T07:58:38.388Z,21.88
2022-10-10T08:01:09.209Z,23.87
2022-10-10T08:03:36.210Z,24.99
2022-10-10T08:06:04.339Z,25.26
2022-10-10T08:08:34.130Z,25.81
2022-10-10T08:11:01.458Z,27.20
2022-10-10T08:13:28.132Z,27.58
2022-10-10T08:15:54.799Z,27.89
2022-10-10T08:18:21.502Z,28.28
2022-10-10T08:20:48.152Z,27.62
2022-10-10T08:23:14.797Z,26.88
2022-10-10T08:25:41.450Z,26.24
2022-10-10T08:28:08.149Z,24.23
2022-10-10T08:30:34.831Z,22.77
2022-10-10T08:33:01.720Z,22.60
2022-10-10T08:35:28.383Z,21.94
2022-10-10T08:37:55.243Z,20.04
2022-10-10T08:40:21.969Z,19.52
2022-10-10T08:42:52.992Z,20.20
2022-10-10T08:45:25.379Z,16.79
2022-10-10T08:48:00.295Z,18.13
2022-10-10T08:50:32.971Z,17.32
2022-10-10T08:53:06.386Z,17.23
2022-10-10T08:55:34.599Z,17.18
2022-10-10T08:58:03.353Z,17.34
2022-10-10T09:00:33.130Z,16.29
2022-10-10T09:03:01.575Z,17.04
2022-10-10T09:05:31.879Z,15.83
2022-10-10T09:08:37.223Z,16.45
2022-10-10T09:11:05.185Z,16.95
2022-10-10T09:13:36.830Z,14.41
2022-10-10T09:16:08.588Z,15.79
2022-10-10T09:18:46.420Z,15.97
2022-10-10T09:21:16.572Z,15.08
2022-10-10T09:23:59.922Z,14.90
2022-10-10T09:26:27.990Z,16.10
2022-10-10T09:29:04.853Z,16.65
2022-10-10T09:31:37.398Z,16.69
2022-10-10T09:34:31.096Z,15.05
2022-10-10T09:37:00.505Z,15.80
2022-10-10T09:39:37.693Z,17.00
2022-10-10T09:42:05.447Z,14.38
2022-10-10T09:44:32.146Z,15.67
2022-10-10T09:46:59.769Z,16.55
2022-10-10T09:49:26.411Z,16.22
2022-10-10T09:51:53.117Z,15.64
2022-10-10T09:54:20.085Z,15.12
2022-10-10T09:56:52.095Z,15.31
2022-10-10T09:59:42.517Z,17.30
2022-10-10T10:02:20.208Z,16.36
2022-10-10T10:04:47.656Z,15.31
2022-10-10T10:07:33.653Z,16.49
2022-10-10T10:10:21.360Z,14.71
2022-10-10T10:12:48.247Z,16.24
2022-10-10T10:15:25.454Z,16.21
2022-10-10T10:18:10.908Z,17.15
2022-10-10T10:20:39.649Z,15.79
2022-10-10T10:23:31.499Z,16.38
2022-10-10T10:26:06.518Z,15.69
2022-10-10T10:28:42.566Z,15.27
2022-10-10T10:31:20.672Z,15.58
2022-10-10T10:34:12.184Z,15.83
2022-10-10T10:36:41.742Z,17.30
2022-10-10T10:39:47.309Z,17.35
2022-10-10T10:42:29.181Z,16.30
2022-10-10T10:44:59.679Z,15.00
2022-10-10T10:47:57.591Z,16.60
2022-10-10T10:50:41.456Z,16.06
2022-10-10T10:53:29.991Z,17.67
2022-10-10T10:56:04.985Z,17.41
2022-10-10T10:59:24.101Z,16.83
2022-10-10T11:01:56.915Z,15.33
2022-10-10T11:05:22.783Z,17.76
2022-10-10T11:07:25.019Z,15.82
2022-10-10T11:10:08.828Z,17.66
2022-10-10T11:12:47.502Z,16.09
2022-10-10T11:15:20.987Z,17.37
2022-10-10T11:18:03.594Z,16.26
2022-10-10T11:20:36.990Z,17.75
2022-10-10T11:23:22.683Z,17.81
2022-10-10T11:25:50.462Z,17.82
2022-10-10T11:28:40.277Z,17.21
2022-10-10T11:31:28.334Z,17.91
2022-10-10T11:33:59.233Z,17.38
2022-10-10T11:36:29.025Z,17.90
2022-10-10T11:39:05.001Z,17.38
2022-10-10T11:41:34.674Z,16.60
2022-10-10T11:44:22.380Z,16.11
2022-10-10T11:47:07.552Z,18.07
2022-10-10T11:49:37.112Z,18.06
2022-10-10T11:52:31.931Z,15.69
2022-10-10T11:55:09.399Z,15.41
2022-10-10T11:57:45.854Z,18.12
2022-10-10T12:00:17.033Z,16.29
2022-10-10T12:02:44.969Z,17.16
2022-10-10T12:05:25.781Z,16.72
2022-10-10T12:08:00.044Z,18.22
2022-10-10T12:10:44.378Z,17.26
2022-10-10T12:13:32.900Z,17.81
2022-10-10T12:16:03.381Z,15.89
2022-10-10T12:18:32.462Z,17.35
2022-10-10T12:21:04.314Z,16.59
2022-10-10T12:23:31.389Z,16.15
2022-10-10T12:25:58.370Z,17.18
2022-10-10T12:28:37.001Z,17.18
2022-10-10T12:31:06.523Z,17.93
2022-10-10T12:33:33.179Z,17.84
2022-10-10T12:36:41.377Z,17.76
2022-10-10T12:39:11.030Z,17.69
2022-10-10T12:41:47.226Z,17.02
2022-10-10T12:44:21.669Z,17.63
2022-10-10T12:46:51.353Z,16.24
2022-10-10T12:49:22.436Z,15.89
2022-10-10T12:52:12.583Z,15.44
2022-10-10T12:54:44.036Z,16.56
2022-10-10T12:57:46.362Z,17.44
2022-10-10T13:00:18.298Z,15.74
2022-10-10T13:02:46.928Z,16.07
2022-10-10T13:05:15.590Z,16.00
2022-10-10T13:07:42.536Z,15.66
2022-10-10T13:10:20.491Z,16.91
2022-10-10T13:12:47.169Z,16.18
2022-10-10T13:15:20.779Z,16.06
2022-10-10T13:17:47.435Z,16.21
2022-10-10T13:20:43.436Z,17.36
2022-10-10T13:23:14.182Z,16.47
2022-10-10T13:25:40.859Z,16.70
2022-10-10T13:28:18.189Z,15.42
2022-10-10T13:30:48.791Z,16.08
2022-10-10T13:33:19.335Z,15.35
2022-10-10T13:35:46.532Z,15.55
2022-10-10T13:38:13.755Z,15.41
2022-10-10T13:40:42.104Z,14.13
2022-10-10T13:43:16.081Z,16.45
2022-10-10T13:45:50.104Z,16.75
2022-10-10T13:48:20.653Z,16.52
2022-10-10T13:50:55.174Z,15.08
2022-10-10T13:53:28.899Z,16.63
2022-10-10T13:56:19.455Z,15.58
2022-10-10T13:58:56.186Z,16.41
2022-10-10T14:01:47.516Z,16.09
2022-10-10T14:04:52.384Z,16.46
2022-10-10T14:07:26.865Z,16.32
2022-10-10T14:09:59.745Z,16.44
2022-10-10T14:12:32.522Z,16.29
2022-10-10T14:15:00.067Z,15.82
2022-10-10T14:17:26.953Z,15.81
2022-10-10T14:19:53.726Z,15.75
2022-10-10T14:22:20.489Z,13.82
2022-10-10T14:24:47.470Z,15.31
2022-10-10T14:27:20.235Z,16.41
2022-10-10T14:29:47.023Z,15.62
2022-10-10T14:32:16.762Z,15.62
2022-10-10T14:34:43.535Z,14.62
2022-10-10T14:37:22.723Z,14.59
2022-10-10T14:39:49.601Z,14.22
2022-10-10T14:42:16.912Z,14.89
2022-10-10T14:44:43.718Z,15.31
2022-10-10T14:47:21.805Z,15.07
2022-10-10T14:49:48.682Z,14.64
2022-10-10T14:52:15.749Z,15.34
2022-10-10T14:54:42.439Z,13.95
2022-10-10T14:57:10.513Z,14.16
2022-10-10T14:59:47.407Z,14.61
2022-10-10T15:02:18.383Z,15.63
2022-10-10T15:04:45.171Z,15.34
2022-10-10T15:07:13.881Z,13.90
2022-10-10T15:09:51.514Z,15.05
2022-10-10T15:12:27.864Z,14.30
2022-10-10T15:14:54.592Z,14.91
2022-10-10T15:17:21.240Z,14.45
2022-10-10T15:19:47.869Z,14.70
2022-10-10T15:22:14.522Z,13.83
2022-10-10T15:24:41.193Z,14.77
2022-10-10T15:27:07.829Z,14.81
2022-10-10T15:29:34.623Z,13.97
2022-10-10T15:32:01.991Z,14.81
2022-10-10T15:34:28.688Z,14.34
2022-10-10T15:36:55.366Z,14.08
2022-10-10T15:39:22.080Z,14.42
2022-10-10T15:41:48.691Z,13.60
2022-10-10T15:44:17.407Z,14.02
2022-10-10T15:46:44.554Z,13.91
2022-10-10T15:49:11.492Z,14.21
2022-10-10T15:51:38.180Z,14.28
2022-10-10T15:54:04.913Z,13.02
2022-10-10T15:56:31.539Z,13.97
2022-10-10T15:58:58.695Z,14.45
2022-10-10T16:01:25.657Z,14.31
2022-10-10T16:03:52.363Z,14.63
2022-10-10T16:06:19.888Z,13.79
2022-10-10T16:08:52.757Z,13.42
2022-10-10T16:11:30.871Z,14.03
2022-10-10T16:13:59.212Z,14.02
2022-10-10T16:16:25.812Z,13.12
2022-10-10T16:18:52.450Z,12.92
2022-10-10T16:21:20.738Z,13.27
2022-10-10T16:23:47.776Z,12.84
2022-10-10T16:26:17.352Z,12.82
2022-10-10T16:28:44.137Z,12.78
2022-10-10T16:31:12.830Z,13.39
2022-10-10T16:33:39.646Z,13.73
2022-10-10T16:36:13.677Z,13.71
2022-10-10T16:38:40.385Z,13.52
2022-10-10T16:41:15.962Z,13.29
2022-10-10T16:43:50.534Z,13.25
2022-10-10T16:46:20.315Z,13.11
2022-10-10T16:48:47.034Z,13.17
2022-10-10T16:51:15.820Z,13.25
2022-10-10T16:53:42.581Z,12.96
2022-10-10T16:56:11.787Z,12.58
2022-10-10T16:58:38.998Z,13.70
2022-10-10T17:01:14.263Z,13.27
2022-10-10T17:03:41.175Z,13.75
2022-10-10T17:06:15.982Z,13.07
2022-10-10T17:08:45.221Z,13.10
2022-10-10T17:11:11.940Z,13.23
2022-10-10T17:13:38.781Z,12.90
2022-10-10T17:16:34.101Z,10.88
2022-10-10T17:18:53.385Z,13.75
2022-10-10T17:21:21.713Z,11.94
2022-10-10T17:23:50.658Z,12.24
2022-10-10T17:26:22.542Z,13.15
2022-10-10T17:28:50.160Z,12.34
2022-10-10T17:31:17.525Z,12.11
2022-10-10T17:33:49.721Z,12.62
2022-10-10T17:36:22.317Z,12.95
2022-10-10T17:38:49.034Z,11.59
2022-10-10T17:41:16.694Z,12.98
2022-10-10T17:43:43.555Z,12.91
2022-10-10T17:46:34.468Z,13.03
2022-10-10T17:49:03.453Z,13.52
2022-10-10T17:51:30.118Z,13.09
2022-10-10T17:53:59.036Z,12.86
2022-10-10T17:56:25.651Z,12.20
2022-10-10T17:58:52.279Z,11.63
2022-10-10T18:01:19.449Z,12.09
2022-10-10T18:03:46.325Z,12.04
2022-10-10T18:06:14.883Z,11.99
2022-10-10T18:08:43.995Z,12.40
2022-10-10T18:11:18.726Z,12.19
2022-10-10T18:13:45.420Z,11.83
2022-10-10T18:16:13.744Z,9.81
2022-10-10T18:18:41.275Z,11.44
2022-10-10T18:21:08.511Z,11.12
2022-10-10T18:23:35.386Z,12.32
2022-10-10T18:26:05.975Z,9.54
2022-10-10T18:28:33.610Z,11.98
2022-10-10T18:31:00.831Z,12.12
2022-10-10T18:33:27.541Z,11.81
2022-10-10T18:35:54.151Z,12.46
2022-10-10T18:38:20.774Z,11.73
2022-10-10T18:40:47.506Z,10.98
2022-10-10T18:43:14.118Z,12.05
2022-10-10T18:45:40.759Z,11.67
2022-10-10T18:48:07.445Z,12.13
2022-10-10T18:50:34.111Z,10.61
2022-10-10T18:53:00.727Z,12.39
2022-10-10T18:55:30.455Z,11.67
2022-10-10T18:57:57.998Z,11.55
2022-10-10T19:00:27.575Z,11.92
2022-10-10T19:02:54.268Z,11.34
2022-10-10T19:05:20.846Z,11.53
2022-10-10T19:07:47.503Z,11.36
2022-10-10T19:10:14.126Z,11.55
2022-10-10T19:12:45.140Z,11.73
2022-10-10T19:15:14.924Z,10.92
2022-10-10T19:17:41.524Z,11.36
2022-10-10T19:20:08.473Z,12.29
2022-10-10T19:22:35.203Z,11.47
2022-10-10T19:25:03.021Z,10.88
2022-10-10T19:27:29.695Z,11.14
2022-10-10T19:29:56.339Z,11.59
2022-10-10T19:32:22.988Z,11.59
2022-10-10T19:34:49.653Z,11.46
2022-10-10T19:37:16.549Z,11.54
2022-10-10T19:39:43.287Z,11.94
2022-10-10T19:42:09.857Z,11.87
2022-10-10T19:44:36.624Z,12.42
2022-10-10T19:47:03.329Z,11.52
2022-10-10T19:49:30.636Z,12.37
2022-10-10T19:51:57.305Z,10.16
2022-10-10T19:54:24.165Z,10.77
2022-10-10T19:56:51.046Z,12.25
2022-10-10T19:59:17.807Z,11.44
2022-10-10T20:01:44.505Z,11.18
2022-10-10T20:04:12.106Z,12.05
2022-10-10T20:06:41.212Z,11.92
2022-10-10T20:09:10.827Z,11.73
2022-10-10T20:11:38.216Z,12.18
2022-10-10T20:14:05.009Z,11.83
2022-10-10T20:16:31.718Z,11.84
2022-10-10T20:18:58.665Z,12.20
2022-10-10T20:21:31.500Z,11.53
2022-10-10T20:24:00.039Z,12.23
2022-10-10T20:26:26.917Z,11.69
2022-10-10T20:28:54.112Z,11.37
2022-10-10T20:31:25.451Z,10.14
2022-10-10T20:33:53.641Z,11.49
2022-10-10T20:36:20.784Z,12.34
2022-10-10T20:38:57.981Z,10.10
2022-10-10T20:41:25.934Z,11.65
2022-10-10T20:43:59.361Z,11.55
2022-10-10T20:46:27.665Z,11.53
2022-10-10T20:48:54.992Z,11.60
2022-10-10T20:51:21.693Z,11.70
2022-10-10T20:53:57.535Z,10.71
2022-10-10T20:56:24.292Z,11.22
2022-10-10T20:58:50.896Z,11.44
2022-10-10T21:01:18.687Z,11.99
2022-10-10T21:03:46.300Z,11.63
2022-10-10T21:06:23.781Z,11.62
2022-10-10T21:08:51.216Z,10.18
2022-10-10T21:11:18.045Z,11.86
2022-10-10T21:13:45.851Z,11.55
2022-10-10T21:16:15.590Z,11.98
2022-10-10T21:18:44.507Z,10.59
2022-10-10T21:21:16.477Z,11.82
2022-10-10T21:23:44.921Z,11.74
2022-10-10T21:26:19.205Z,11.52
2022-10-10T21:28:48.600Z,11.99
2022-10-10T21:31:16.266Z,11.35
2022-10-10T21:33:43.081Z,9.28
2022-10-10T21:36:10.276Z,11.31
2022-10-10T21:38:37.786Z,10.65
2022-10-10T21:41:08.745Z,11.90
2022-10-10T21:43:40.277Z,9.91
2022-10-10T21:46:08.603Z,11.96
2022-10-10T21:48:35.374Z,11.46
2022-10-10T21:51:02.099Z,11.73
2022-10-10T21:53:28.911Z,11.35
2022-10-10T21:55:55.786Z,11.66
2022-10-10T21:58:25.618Z,11.61
2022-10-10T22:00:52.259Z,11.42
2022-10-10T22:03:18.906Z,11.03
2022-10-10T22:05:45.569Z,11.29
2022-10-10T22:08:12.183Z,10.71
2022-10-10T22:10:40.467Z,10.85
2022-10-10T22:13:07.120Z,10.44
2022-10-10T22:15:33.871Z,11.16
2022-10-10T22:18:00.459Z,10.04
2022-10-10T22:20:27.083Z,10.46
2022-10-10T22:22:53.681Z,10.93
2022-10-10T22:25:20.438Z,10.04
2022-10-10T22:27:47.061Z,9.84
2022-10-10T22:30:14.103Z,10.49
2022-10-10T22:32:40.763Z,10.96
2022-10-10T22:35:08.256Z,10.83
2022-10-10T22:37:36.553Z,10.29
2022-10-10T22:40:03.471Z,10.69
2022-10-10T22:42:30.078Z,10.10
2022-10-10T22:44:56.721Z,10.92
2022-10-10T22:47:23.385Z,10.93
2022-10-10T22:49:49.985Z,10.15
2022-10-10T22:52:16.594Z,10.30
2022-10-10T22:54:43.289Z,10.94
2022-10-10T22:57:09.885Z,11.09
2022-10-10T22:59:36.655Z,10.75
2022-10-10T23:02:03.314Z,10.92
2022-10-10T23:04:30.077Z,10.46
2022-10-10T23:06:56.717Z,10.13
2022-10-10T23:09:23.357Z,11.02
2022-10-10T23:11:49.996Z,11.54
2022-10-10T23:14:18.723Z,10.50
2022-10-10T23:16:45.424Z,10.65
2022-10-10T23:19:12.014Z,10.59
2022-10-10T23:21:38.636Z,10.59
2022-10-10T23:24:05.664Z,11.82
2022-10-10T23:26:32.376Z,10.15
2022-10-10T23:28:59.063Z,10.39
2022-10-10T23:31:25.686Z,10.05
2022-10-10T23:33:52.349Z,9.99
2022-10-10T23:36:19.012Z,10.65
2022-10-10T23:38:45.655Z,11.04
2022-10-10T23:41:12.495Z,10.77
2022-10-10T23:43:39.236Z,10.14
2022-10-10T23:46:06.425Z,10.71
2022-10-10T23:48:33.453Z,10.80
2022-10-10T23:51:00.072Z,10.51
2022-10-10T23:53:26.645Z,10.77
2022-10-10T23:55:53.297Z,10.41
2022-10-10T23:58:19.960Z,10.66
